Time;durP1;ratioP1;P1;durP2;ratioP2;P2;SDS_P1;SDS_P2;PMS_P1;PMS_P2;Temp;Humidity;BMP_temperature;BMP_pressure;BME280_temperature;BME280_humidity;BME280_pressure;Samples;Min_cycle;Max_cycle;Signal;HPM_P1;HPM_P2
2024/01/11 00:02:22;;;;;;;1.00;0.80;;;;;;;0.79;100.00;99185.22;5096341;28;20113;-55
2024/01/11 00:04:49;;;;;;;0.80;0.80;;;;;;;1.22;100.00;99164.09;5096608;28;20048;-59
2024/01/11 00:07:15;;;;;;;0.82;0.82;;;;;;;0.96;100.00;99171.13;5096213;28;20286;-53
2024/01/11 00:09:42;;;;;;;1.38;1.27;;;;;;;1.22;100.00;99147.91;5096526;28;20099;-58
2024/01/11 00:12:09;;;;;;;1.58;1.10;;;;;;;1.07;100.00;99145.53;5096018;28;20044;-53
2024/01/11 00:14:36;;;;;;;1.05;1.05;;;;;;;1.18;100.00;99142.31;5096087;28;20149;-54
2024/01/11 00:17:02;;;;;;;1.65;1.15;;;;;;;0.87;100.00;99144.06;5096041;28;20134;-56
2024/01/11 00:19:29;;;;;;;0.85;0.80;;;;;;;0.84;100.00;99123.88;5095953;28;20083;-60
2024/01/11 00:21:55;;;;;;;10.45;2.83;;;;;;;1.05;100.00;99115.34;5096069;28;20353;-60
2024/01/11 00:24:21;;;;;;;0.90;0.90;;;;;;;0.88;100.00;99094.38;5095958;28;20052;-54
2024/01/11 00:26:48;;;;;;;1.10;1.00;;;;;;;0.96;100.00;99090.94;5096070;28;20048;-57
2024/01/11 00:29:15;;;;;;;1.33;1.23;;;;;;;1.21;100.00;99078.00;5096029;28;20048;-57
2024/01/11 00:31:41;;;;;;;1.05;0.88;;;;;;;1.38;100.00;99086.25;5096171;28;20388;-56
2024/01/11 00:34:07;;;;;;;0.93;0.93;;;;;;;1.49;100.00;99092.19;5096701;28;20142;-56
2024/01/11 00:36:34;;;;;;;0.85;0.85;;;;;;;1.49;100.00;99103.00;5099744;28;20047;-53
2024/01/11 00:39:01;;;;;;;2.22;1.10;;;;;;;1.20;100.00;99120.41;5099380;28;20052;-57
2024/01/11 00:41:27;;;;;;;1.08;1.08;;;;;;;1.17;100.00;99110.22;5099730;28;20051;-53
2024/01/11 00:43:53;;;;;;;0.70;0.70;;;;;;;1.42;100.00;99108.84;5099540;28;20088;-59
2024/01/11 00:46:20;;;;;;;0.70;0.70;;;;;;;1.32;100.00;99114.47;5099228;28;20405;-59
2024/01/11 00:48:47;;;;;;;1.08;0.80;;;;;;;1.13;100.00;99111.91;5099227;28;20055;-56
2024/01/11 00:51:13;;;;;;;0.75;0.75;;;;;;;1.42;100.00;99114.22;5099287;28;20044;-58
2024/01/11 00:53:39;;;;;;;0.80;0.80;;;;;;;1.22;100.00;99110.09;5099164;28;20413;-56
2024/01/11 00:56:06;;;;;;;0.70;0.70;;;;;;;1.34;100.00;99110.38;5098968;28;20074;-59
2024/01/11 00:58:32;;;;;;;1.00;1.00;;;;;;;1.14;100.00;99113.53;5099442;28;20043;-57
2024/01/11 01:00:58;;;;;;;1.00;1.00;;;;;;;0.96;100.00;99090.16;5099026;28;20172;-53
2024/01/11 01:03:25;;;;;;;0.68;0.68;;;;;;;1.28;100.00;99094.59;5099276;28;20430;-58
2024/01/11 01:05:52;;;;;;;0.90;0.90;;;;;;;1.17;100.00;99088.63;5098834;28;20087;-56
2024/01/11 01:08:18;;;;;;;0.68;0.68;;;;;;;1.11;100.00;99089.81;5099335;28;20048;-59
2024/01/11 01:10:44;;;;;;;1.00;1.00;;;;;;;1.22;100.00;99083.09;5098739;28;20097;-55
2024/01/11 01:13:10;;;;;;;1.38;0.80;;;;;;;1.13;100.00;99085.72;5098700;28;20084;-57
2024/01/11 01:15:37;;;;;;;1.13;1.02;;;;;;;0.86;100.00;99078.47;5098727;28;20052;-56
2024/01/11 01:18:04;;;;;;;1.17;1.08;;;;;;;1.17;100.00;99065.09;5098915;28;20098;-56
2024/01/11 01:20:31;;;;;;;1.00;1.00;;;;;;;1.32;100.00;99071.25;5098959;28;20058;-55
2024/01/11 01:22:57;;;;;;;0.65;0.65;;;;;;;1.09;100.00;99068.53;5098622;28;20409;-55
2024/01/11 01:25:24;;;;;;;2.10;1.05;;;;;;;1.29;100.00;99051.06;5098841;28;20139;-56
2024/01/11 01:27:50;;;;;;;1.00;1.00;;;;;;;0.93;100.00;99062.69;5098768;28;20098;-57
2024/01/11 01:30:16;;;;;;;4.03;1.00;;;;;;;1.12;100.00;99049.00;5098865;28;20143;-56
2024/01/11 01:32:43;;;;;;;2.53;0.93;;;;;;;1.39;100.00;99058.91;5098507;28;20144;-57
2024/01/11 01:35:09;;;;;;;1.00;1.00;;;;;;;1.12;100.00;99056.31;5098939;28;20301;-58
2024/01/11 01:37:36;;;;;;;1.05;1.05;;;;;;;1.26;100.00;99054.34;5098344;28;20135;-56
2024/01/11 01:40:03;;;;;;;1.45;1.30;;;;;;;1.33;100.00;99049.34;5098279;28;20151;-57
2024/01/11 01:42:30;;;;;;;2.45;1.38;;;;;;;1.15;100.00;99043.00;5098546;28;20086;-54
2024/01/11 01:44:56;;;;;;;1.00;1.00;;;;;;;1.12;100.00;99042.81;5097920;28;20083;-59
2024/01/11 01:47:23;;;;;;;1.15;1.15;;;;;;;1.27;100.00;99037.06;5098568;28;20131;-56
2024/01/11 01:49:50;;;;;;;1.05;1.05;;;;;;;1.44;100.00;99030.19;5098273;28;20083;-58
2024/01/11 01:52:17;;;;;;;1.48;1.38;;;;;;;1.20;100.00;99025.91;5098473;28;20084;-55
2024/01/11 01:54:44;;;;;;;1.40;1.30;;;;;;;1.15;100.00;99009.81;5098151;28;20052;-55
2024/01/11 01:57:12;;;;;;;3.08;1.60;;;;;;;1.36;100.00;99012.81;5098547;28;20301;-55
2024/01/11 01:59:39;;;;;;;1.10;1.10;;;;;;;1.35;100.00;99022.03;5098158;28;20047;-58
2024/01/11 02:02:06;;;;;;;1.38;1.35;;;;;;;1.25;100.00;99004.16;5098465;28;20137;-59
2024/01/11 02:04:33;;;;;;;1.95;1.85;;;;;;;1.35;100.00;99011.22;5098068;28;20055;-54
2024/01/11 02:07:00;;;;;;;1.88;1.52;;;;;;;1.14;100.00;99006.31;5098320;28;20083;-56
2024/01/11 02:09:26;;;;;;;1.05;1.05;;;;;;;1.35;100.00;99003.13;5097890;28;20081;-55
2024/01/11 02:11:53;;;;;;;1.30;1.17;;;;;;;1.43;100.00;98991.56;5097811;28;20059;-54
2024/01/11 02:14:20;;;;;;;1.35;1.25;;;;;;;1.46;100.00;98992.84;5097843;28;20450;-53
2024/01/11 02:16:46;;;;;;;1.10;1.10;;;;;;;1.23;100.00;98982.06;5097989;28;20189;-60
2024/01/11 02:19:14;;;;;;;1.30;1.30;;;;;;;1.23;100.00;98990.16;5098077;28;20369;-58
2024/01/11 02:21:42;;;;;;;5.53;1.42;;;;;;;1.22;100.00;98980.47;5097781;28;20048;-58
2024/01/11 02:24:10;;;;;;;1.50;1.40;;;;;;;1.40;100.00;98976.78;5097925;28;20052;-59
2024/01/11 02:26:37;;;;;;;1.23;1.20;;;;;;;1.31;100.00;98964.34;5097554;28;20189;-56
2024/01/11 02:29:03;;;;;;;2.30;1.73;;;;;;;1.34;100.00;98961.81;5098060;28;20150;-56
2024/01/11 02:31:29;;;;;;;1.42;1.33;;;;;;;1.34;100.00;98951.00;5097537;28;20379;-58
2024/01/11 02:33:56;;;;;;;1.40;1.30;;;;;;;1.52;100.00;98959.22;5097904;28;20048;-56
2024/01/11 02:36:23;;;;;;;2.88;2.58;;;;;;;0.99;100.00;98954.56;5097395;28;20079;-58
2024/01/11 02:38:52;;;;;;;1.23;1.17;;;;;;;1.40;100.00;98957.88;5097390;28;20090;-56
2024/01/11 02:41:19;;;;;;;1.42;1.33;;;;;;;1.33;100.00;98954.81;5097287;28;20058;-52
2024/01/11 02:43:47;;;;;;;1.40;1.30;;;;;;;1.26;100.00;98938.22;5097562;28;20098;-55
2024/01/11 02:46:14;;;;;;;1.40;1.30;;;;;;;1.35;100.00;98941.78;5097533;28;20044;-56
2024/01/11 02:48:41;;;;;;;1.83;1.50;;;;;;;1.20;100.00;98938.66;5097233;28;20168;-58
2024/01/11 02:51:07;;;;;;;1.35;1.25;;;;;;;1.55;100.00;98943.16;5097382;28;20134;-53
2024/01/11 02:53:34;;;;;;;1.50;1.40;;;;;;;1.21;100.00;98934.88;5097013;28;20048;-57
2024/01/11 02:56:00;;;;;;;1.10;1.10;;;;;;;1.44;100.00;98928.34;5097255;28;20058;-54
2024/01/11 02:58:27;;;;;;;1.20;1.20;;;;;;;1.28;100.00;98929.84;5096539;28;20079;-57
2024/01/11 03:00:54;;;;;;;1.38;1.27;;;;;;;1.38;100.00;98916.06;5097504;28;20497;-55
2024/01/11 03:03:20;;;;;;;2.58;1.20;;;;;;;1.45;100.00;98924.53;5097066;28;20052;-56
2024/01/11 03:05:47;;;;;;;1.52;1.40;;;;;;;1.33;100.00;98918.88;5096887;28;20534;-54
2024/01/11 03:08:14;;;;;;;1.05;1.05;;;;;;;1.36;100.00;98919.06;5097271;28;20094;-59
2024/01/11 03:10:40;;;;;;;1.67;1.45;;;;;;;1.22;100.00;98910.25;5096942;28;20226;-54
2024/01/11 03:13:07;;;;;;;1.30;1.20;;;;;;;0.80;100.00;98890.78;5097181;28;20168;-59
2024/01/11 03:15:34;;;;;;;1.67;1.30;;;;;;;1.20;100.00;98881.97;5096968;28;20143;-56
2024/01/11 03:18:01;;;;;;;0.98;0.98;;;;;;;1.16;100.00;98884.50;5097110;28;20048;-56
2024/01/11 03:20:27;;;;;;;1.25;1.10;;;;;;;1.24;100.00;98877.56;5096852;28;20091;-58
2024/01/11 03:22:53;;;;;;;1.73;1.63;;;;;;;1.20;100.00;98890.88;5097181;28;20052;-54
2024/01/11 03:25:20;;;;;;;1.05;1.05;;;;;;;1.28;100.00;98898.22;5096740;28;20052;-56
2024/01/11 03:27:46;;;;;;;1.45;1.35;;;;;;;1.04;100.00;98889.69;5096983;28;20425;-58
2024/01/11 03:30:13;;;;;;;3.25;1.50;;;;;;;1.31;100.00;98880.63;5096651;28;20337;-55
2024/01/11 03:32:40;;;;;;;2.65;1.35;;;;;;;1.17;100.00;98873.41;5096537;28;20134;-58
2024/01/11 03:35:07;;;;;;;4.13;1.60;;;;;;;1.17;100.00;98872.59;5096889;28;20384;-54
2024/01/11 03:37:34;;;;;;;1.40;1.35;;;;;;;1.40;100.00;98882.25;5096799;28;20093;-53
2024/01/11 03:40:00;;;;;;;1.10;1.10;;;;;;;1.37;100.00;98887.47;5096694;28;20396;-55
2024/01/11 03:42:27;;;;;;;2.60;1.48;;;;;;;1.14;100.00;98881.31;5096482;28;20080;-58
2024/01/11 03:44:53;;;;;;;1.50;1.40;;;;;;;1.25;100.00;98876.44;5096825;28;20080;-57
2024/01/11 03:47:19;;;;;;;1.52;1.42;;;;;;;1.35;100.00;98885.06;5096562;28;20305;-55
2024/01/11 03:49:46;;;;;;;1.08;1.08;;;;;;;1.37;100.00;98874.75;5096264;28;20087;-59
2024/01/11 03:52:13;;;;;;;4.78;1.63;;;;;;;1.14;100.00;98879.41;5096748;28;20084;-52
2024/01/11 03:54:39;;;;;;;2.47;1.83;;;;;;;1.30;100.00;98871.72;5096738;28;20139;-58
2024/01/11 03:57:06;;;;;;;3.80;1.50;;;;;;;1.30;100.00;98869.03;5096195;28;20048;-57
2024/01/11 03:59:32;;;;;;;2.60;1.60;;;;;;;1.51;100.00;98884.69;5096692;28;20048;-57
2024/01/11 04:01:59;;;;;;;1.75;1.65;;;;;;;1.50;100.00;98893.88;5096504;28;20079;-58
2024/01/11 04:04:26;;;;;;;1.60;1.50;;;;;;;1.53;100.00;98877.81;5096207;28;20105;-58
2024/01/11 04:06:53;;;;;;;1.40;1.30;;;;;;;1.46;100.00;98884.78;5096239;28;20091;-56
2024/01/11 04:09:20;;;;;;;1.85;1.73;;;;;;;1.22;100.00;98880.56;5098920;28;20093;-55
2024/01/11 04:11:46;;;;;;;1.75;1.48;;;;;;;1.48;100.00;98877.19;5100128;28;20054;-55
2024/01/11 04:14:13;;;;;;;1.70;1.60;;;;;;;1.56;100.00;98882.63;5099685;28;20087;-54
2024/01/11 04:16:41;;;;;;;1.77;1.67;;;;;;;1.57;100.00;98880.72;5099882;28;20088;-60
2024/01/11 04:19:07;;;;;;;3.47;1.95;;;;;;;1.44;100.00;98870.81;5099681;28;20332;-58
2024/01/11 04:21:34;;;;;;;2.00;1.90;;;;;;;1.49;100.00;98870.66;5100039;28;20075;-58
2024/01/11 04:24:01;;;;;;;2.88;2.20;;;;;;;1.47;100.00;98864.81;5099560;28;20079;-54
2024/01/11 04:26:27;;;;;;;2.30;2.10;;;;;;;1.36;100.00;98864.25;5100021;28;20090;-59
2024/01/11 04:28:53;;;;;;;3.22;2.30;;;;;;;1.54;100.00;98859.75;5099377;28;20109;-55
2024/01/11 04:31:20;;;;;;;7.88;2.58;;;;;;;1.31;100.00;98865.19;5099351;28;20080;-54
2024/01/11 04:33:47;;;;;;;2.47;1.98;;;;;;;1.59;100.00;98860.38;5099397;28;20084;-59
2024/01/11 04:36:13;;;;;;;2.92;2.50;;;;;;;1.38;100.00;98854.75;5099530;28;20048;-53
2024/01/11 04:38:40;;;;;;;3.53;2.30;;;;;;;1.59;100.00;98859.59;5099463;28;20048;-57
2024/01/11 04:41:09;;;;;;;2.17;1.95;;;;;;;1.59;100.00;98863.06;5099143;28;20088;-57
2024/01/11 04:43:37;;;;;;;2.13;2.03;;;;;;;1.46;100.00;98865.88;5099429;28;20110;-55
2024/01/11 04:46:04;;;;;;;4.10;2.70;;;;;;;1.37;100.00;98861.25;5099046;28;20059;-55
2024/01/11 04:48:30;;;;;;;5.97;3.88;;;;;;;1.42;100.00;98865.72;5099304;28;20409;-59
2024/01/11 04:50:56;;;;;;;6.65;2.72;;;;;;;1.52;100.00;98860.03;5098901;28;20087;-58
2024/01/11 04:53:23;;;;;;;3.70;3.05;;;;;;;1.68;100.00;98868.53;5099368;28;20144;-56
2024/01/11 04:55:49;;;;;;;3.42;2.80;;;;;;;1.67;100.00;98872.34;5098773;28;20079;-59
2024/01/11 04:58:16;;;;;;;3.75;2.92;;;;;;;1.57;100.00;98864.53;5098791;28;20135;-56
2024/01/11 05:00:42;;;;;;;3.60;2.70;;;;;;;1.62;100.00;98870.56;5098795;28;20091;-60
2024/01/11 05:03:09;;;;;;;5.68;3.50;;;;;;;1.59;100.00;98863.06;5098731;28;20067;-55
2024/01/11 05:05:36;;;;;;;4.22;2.60;;;;;;;1.72;100.00;98853.25;5098970;28;20044;-58
2024/01/11 05:08:02;;;;;;;4.57;2.50;;;;;;;1.69;100.00;98845.78;5098531;28;20063;-53
2024/01/11 05:10:28;;;;;;;4.57;2.38;;;;;;;1.70;100.00;98838.47;5098982;28;20047;-58
2024/01/11 05:12:54;;;;;;;3.47;2.83;;;;;;;1.96;100.00;98836.63;5098680;28;20117;-57
2024/01/11 05:15:22;;;;;;;4.90;3.25;;;;;;;1.77;100.00;98836.13;5099035;28;20331;-57
2024/01/11 05:17:48;;;;;;;3.10;2.80;;;;;;;1.83;100.00;98838.38;5098612;28;20048;-59
2024/01/11 05:20:15;;;;;;;5.00;2.85;;;;;;;1.85;100.00;98833.44;5098200;28;20424;-59
2024/01/11 05:22:42;;;;;;;3.00;2.60;;;;;;;1.84;100.00;98831.06;5098362;28;20044;-55
2024/01/11 05:25:08;;;;;;;4.30;2.72;;;;;;;1.46;100.00;98828.88;5098841;28;20052;-59
2024/01/11 05:27:35;;;;;;;2.83;2.50;;;;;;;1.70;100.00;98839.28;5098675;28;20056;-60
2024/01/11 05:30:01;;;;;;;4.18;2.85;;;;;;;1.70;100.00;98833.88;5098528;28;20114;-55
2024/01/11 05:32:28;;;;;;;3.05;2.75;;;;;;;1.76;100.00;98829.09;5098584;28;20055;-57
2024/01/11 05:34:54;;;;;;;2.67;2.47;;;;;;;1.62;100.00;98824.63;5098324;28;20415;-57
2024/01/11 05:37:21;;;;;;;4.05;2.03;;;;;;;1.63;100.00;98828.94;5098598;28;20048;-55
2024/01/11 05:39:47;;;;;;;5.05;2.40;;;;;;;1.69;100.00;98815.28;5098013;28;20048;-58
2024/01/11 05:42:13;;;;;;;5.63;3.10;;;;;;;1.52;100.00;98808.72;5098328;28;20051;-56
2024/01/11 05:44:40;;;;;;;7.18;4.32;;;;;;;1.47;100.00;98808.06;5098046;28;20094;-58
2024/01/11 05:47:06;;;;;;;3.90;2.28;;;;;;;1.60;100.00;98796.31;5098426;28;20056;-56
2024/01/11 05:49:33;;;;;;;4.70;2.28;;;;;;;1.54;100.00;98800.31;5098037;28;20070;-59
2024/01/11 05:52:00;;;;;;;2.13;1.90;;;;;;;1.77;100.00;98801.78;5098468;28;20055;-55
2024/01/11 05:54:28;;;;;;;6.93;3.90;;;;;;;1.73;100.00;98803.50;5097792;28;20098;-58
2024/01/11 05:56:56;;;;;;;7.53;3.55;;;;;;;1.85;100.00;98798.28;5097794;28;20052;-57
2024/01/11 05:59:22;;;;;;;41.05;10.73;;;;;;;1.65;100.00;98801.59;5097894;28;20059;-56
2024/01/11 06:01:48;;;;;;;15.05;5.07;;;;;;;1.65;100.00;98802.38;5097645;28;20406;-60
2024/01/11 06:04:15;;;;;;;24.02;6.43;;;;;;;1.63;100.00;98793.00;5097709;28;20379;-53
2024/01/11 06:06:42;;;;;;;29.05;9.00;;;;;;;1.50;100.00;98800.13;5097866;28;20067;-59
2024/01/11 06:09:09;;;;;;;36.03;10.27;;;;;;;1.74;100.00;98799.72;5098094;28;20135;-60
2024/01/11 06:11:36;;;;;;;2.22;2.00;;;;;;;1.72;100.00;98796.50;5097540;28;20143;-58
2024/01/11 06:14:02;;;;;;;5.78;2.75;;;;;;;2.36;100.00;98793.22;5097704;28;20405;-58
2024/01/11 06:16:29;;;;;;;4.88;2.53;;;;;;;2.13;100.00;98784.47;5097350;28;20306;-58
2024/01/11 06:18:55;;;;;;;3.13;2.38;;;;;;;2.33;100.00;98778.44;5097918;28;20052;-57
2024/01/11 06:21:21;;;;;;;4.63;2.30;;;;;;;2.25;100.00;98762.19;5097444;28;20063;-57
2024/01/11 06:23:49;;;;;;;12.45;5.90;;;;;;;2.22;100.00;98741.19;5097475;28;20384;-55
2024/01/11 06:26:15;;;;;;;3.47;2.58;;;;;;;2.25;100.00;98705.41;5097620;28;20063;-53
2024/01/11 06:28:41;;;;;;;1.83;1.70;;;;;;;2.40;100.00;98675.16;5097283;28;20052;-60
2024/01/11 06:31:10;;;;;;;3.50;2.47;;;;;;;2.19;100.00;98641.78;5096646;28;20044;-55
2024/01/11 06:33:36;;;;;;;5.30;2.97;;;;;;;2.17;100.00;98627.81;5096625;28;20439;-55
2024/01/11 06:36:04;;;;;;;3.67;2.17;;;;;;;2.39;100.00;98610.53;5097287;28;20071;-57
2024/01/11 06:38:31;;;;;;;2.60;1.90;;;;;;;2.47;100.00;98577.25;5096929;28;20117;-53
2024/01/11 06:40:58;;;;;;;3.20;1.90;;;;;;;2.35;100.00;98538.13;5097516;28;20345;-57
2024/01/11 06:43:24;;;;;;;4.18;2.50;;;;;;;2.31;100.00;98531.81;5096951;28;20052;-58
2024/01/11 06:45:51;;;;;;;5.18;2.15;;;;;;;2.39;100.00;98540.19;5097035;28;20102;-55
2024/01/11 06:48:17;;;;;;;3.63;1.88;;;;;;;2.35;100.00;98529.22;5096601;28;20427;-56
2024/01/11 06:50:43;;;;;;;2.88;2.30;;;;;;;2.41;100.00;98530.66;5096518;28;20425;-58
2024/01/11 06:53:10;;;;;;;1.70;1.60;;;;;;;2.30;100.00;98527.53;5096751;28;20412;-53
2024/01/11 06:55:36;;;;;;;2.33;1.65;;;;;;;2.41;100.00;98546.09;5096744;28;20378;-56
2024/01/11 06:58:04;;;;;;;4.85;2.97;;;;;;;2.31;100.00;98537.22;5096746;28;20059;-59
2024/01/11 07:00:30;;;;;;;2.63;2.03;;;;;;;2.36;100.00;98569.47;5096388;28;20048;-59
2024/01/11 07:02:56;;;;;;;5.82;2.50;;;;;;;2.34;100.00;98547.38;5096619;28;20052;-54
2024/01/11 07:05:23;;;;;;;2.30;2.10;;;;;;;2.31;100.00;98555.34;5096437;28;20313;-56
2024/01/11 07:07:49;;;;;;;2.28;2.00;;;;;;;2.28;100.00;98581.13;5096705;28;20047;-58
2024/01/11 07:10:16;;;;;;;2.58;2.25;;;;;;;2.45;100.00;98584.88;5096425;28;20052;-57
2024/01/11 07:12:42;;;;;;;1.88;1.77;;;;;;;2.36;100.00;98564.06;5096972;28;20073;-56
2024/01/11 07:15:11;;;;;;;2.70;2.00;;;;;;;2.48;100.00;98568.00;5096452;28;20420;-53
2024/01/11 07:17:37;;;;;;;3.22;2.30;;;;;;;2.30;100.00;98524.81;5096901;28;20054;-54
2024/01/11 07:20:04;;;;;;;3.00;2.15;;;;;;;2.46;100.00;98537.78;5096388;28;20056;-59
2024/01/11 07:22:30;;;;;;;2.13;1.90;;;;;;;2.47;100.00;98517.72;5096521;28;20047;-57
2024/01/11 07:24:57;;;;;;;3.72;2.60;;;;;;;2.54;100.00;98505.25;5096783;28;20328;-54
2024/01/11 07:27:23;;;;;;;3.28;2.38;;;;;;;2.56;100.00;98504.94;5096621;28;20060;-58
2024/01/11 07:29:50;;;;;;;8.68;2.78;;;;;;;2.59;100.00;98491.53;5096671;28;20048;-54
2024/01/11 07:32:17;;;;;;;2.95;2.38;;;;;;;2.86;100.00;98464.28;5096306;28;20048;-55
2024/01/11 07:34:43;;;;;;;4.63;3.08;;;;;;;2.79;100.00;98425.00;5096516;28;20066;-59
2024/01/11 07:37:10;;;;;;;5.38;2.42;;;;;;;2.88;100.00;98407.91;5096227;28;20120;-59
2024/01/11 07:39:36;;;;;;;3.78;2.38;;;;;;;2.93;100.00;98373.31;5096530;28;20164;-55
2024/01/11 07:42:03;;;;;;;4.38;2.38;;;;;;;2.98;100.00;98312.72;5096244;28;20051;-56
2024/01/11 07:44:29;;;;;;;5.45;3.55;;;;;;;2.93;100.00;98288.56;5096044;28;20162;-56
2024/01/11 07:46:56;;;;;;;3.55;3.10;;;;;;;2.88;100.00;98262.50;5095973;28;20048;-59
2024/01/11 07:49:23;;;;;;;3.50;2.60;;;;;;;2.72;100.00;98245.31;5095972;28;20142;-60
2024/01/11 07:51:49;;;;;;;3.42;2.65;;;;;;;2.71;100.00;98252.66;5096202;28;20051;-55
2024/01/11 07:54:16;;;;;;;4.93;3.15;;;;;;;2.63;100.00;98255.44;5095591;28;20405;-55
2024/01/11 07:56:43;;;;;;;5.07;3.08;;;;;;;2.70;100.00;98297.09;5095951;28;20109;-59
2024/01/11 07:59:13;;;;;;;4.68;3.35;;;;;;;2.70;100.00;98293.56;5096002;28;20048;-58
2024/01/11 08:01:40;;;;;;;12.15;6.90;;;;;;;2.63;100.00;98301.44;5096128;28;20397;-59
2024/01/11 08:04:06;;;;;;;3.70;2.58;;;;;;;2.60;100.00;98305.63;5095827;28;20151;-59
2024/01/11 08:06:33;;;;;;;2.80;2.53;;;;;;;2.59;100.00;98298.63;5096228;28;20047;-58
2024/01/11 08:09:00;;;;;;;5.07;3.25;;;;;;;2.71;100.00;98322.25;5095893;28;20052;-57
2024/01/11 08:11:28;;;;;;;3.28;2.75;;;;;;;2.70;100.00;98320.63;5096194;28;20413;-56
2024/01/11 08:13:55;;;;;;;3.97;2.47;;;;;;;2.75;100.00;98323.16;5095367;28;20201;-56
2024/01/11 08:16:22;;;;;;;3.38;2.22;;;;;;;2.83;100.00;98295.19;5095655;28;20047;-56
2024/01/11 08:18:48;;;;;;;3.80;2.20;;;;;;;2.80;100.00;98276.94;5095960;28;20102;-56
2024/01/11 08:21:15;;;;;;;2.35;2.15;;;;;;;2.65;100.00;98245.09;5095818;28;20059;-60
2024/01/11 08:23:44;;;;;;;6.22;3.05;;;;;;;2.60;100.00;98256.94;5095913;28;20059;-59
2024/01/11 08:26:12;;;;;;;6.10;2.85;;;;;;;2.79;100.00;98270.72;5095932;28;20047;-59
2024/01/11 08:28:39;;;;;;;4.65;2.45;;;;;;;2.79;100.00;98268.00;5095870;28;20055;-55
2024/01/11 08:31:05;;;;;;;3.97;2.60;;;;;;;2.86;100.00;98256.63;5095434;28;20063;-56
2024/01/11 08:33:31;;;;;;;2.38;1.90;;;;;;;2.99;100.00;98241.19;5095851;28;20044;-57
2024/01/11 08:35:58;;;;;;;1.70;1.60;;;;;;;2.88;100.00;98183.22;5095474;28;20047;-56
2024/01/11 08:38:24;;;;;;;2.60;2.17;;;;;;;2.89;100.00;98158.50;5095810;28;20051;-54
2024/01/11 08:40:51;;;;;;;4.75;2.58;;;;;;;3.01;100.00;98127.94;5095146;28;20363;-56
2024/01/11 08:43:18;;;;;;;2.95;1.90;;;;;;;2.96;100.00;98090.25;5095126;28;20067;-56
2024/01/11 08:45:44;;;;;;;2.00;1.90;;;;;;;2.95;100.00;98075.94;5095261;28;20105;-55
2024/01/11 08:48:10;;;;;;;2.08;1.98;;;;;;;2.95;100.00;98083.25;5095292;28;20044;-61
2024/01/11 08:50:37;;;;;;;6.47;2.08;;;;;;;2.88;100.00;98062.19;5095324;28;20354;-58
2024/01/11 08:53:03;;;;;;;3.60;1.85;;;;;;;2.88;100.00;98055.97;5095444;28;20310;-58
2024/01/11 08:55:30;;;;;;;4.25;1.75;;;;;;;3.06;100.00;98062.69;5097157;28;20298;-54
2024/01/11 08:57:57;;;;;;;2.33;2.05;;;;;;;3.06;100.00;98030.22;5098650;28;20052;-60
2024/01/11 09:00:23;;;;;;;2.65;1.90;;;;;;;3.19;100.00;97991.13;5098943;28;20409;-56
2024/01/11 09:02:49;;;;;;;1.98;1.73;;;;;;;3.09;100.00;97939.38;5098563;28;20067;-58
2024/01/11 09:05:16;;;;;;;3.92;2.08;;;;;;;3.09;100.00;97907.66;5098947;28;20064;-59
2024/01/11 09:07:42;;;;;;;1.70;1.60;;;;;;;3.18;100.00;97894.78;5098461;28;20153;-57
2024/01/11 09:10:09;;;;;;;4.13;1.80;;;;;;;3.15;100.00;97873.78;5098931;28;20048;-54
2024/01/11 09:12:37;;;;;;;1.15;1.10;;;;;;;3.08;100.00;97854.66;5098427;28;20052;-59
2024/01/11 09:15:05;;;;;;;1.95;1.77;;;;;;;3.16;100.00;97855.63;5098538;28;20135;-60
2024/01/11 09:17:32;;;;;;;1.67;1.58;;;;;;;3.46;100.00;97845.94;5098463;28;20048;-52
2024/01/11 09:19:58;;;;;;;5.63;2.00;;;;;;;3.34;100.00;97786.44;5098341;28;20329;-60
2024/01/11 09:22:25;;;;;;;2.38;2.10;;;;;;;3.51;100.00;97742.72;5098443;28;20047;-59
2024/01/11 09:24:52;;;;;;;1.65;1.50;;;;;;;3.61;100.00;97705.38;5098239;28;20051;-56
2024/01/11 09:27:19;;;;;;;2.60;2.00;;;;;;;3.72;100.00;97628.56;5098333;28;20147;-56
2024/01/11 09:29:45;;;;;;;1.98;1.77;;;;;;;3.80;100.00;97594.28;5098226;28;20051;-56
2024/01/11 09:32:13;;;;;;;1.70;1.60;;;;;;;3.70;100.00;97536.00;5098485;28;20059;-54
2024/01/11 09:34:40;;;;;;;1.70;1.60;;;;;;;3.48;100.00;97545.66;5097796;28;20218;-56
2024/01/11 09:37:06;;;;;;;2.58;1.42;;;;;;;3.42;100.00;97597.75;5098497;28;20146;-53
2024/01/11 09:39:32;;;;;;;4.80;2.70;;;;;;;3.34;100.00;97682.72;5097983;28;20055;-58
2024/01/11 09:42:06;;;;;;;3.20;1.55;;;;;;;3.26;100.00;97733.22;5098178;28;20051;-57
2024/01/11 09:44:33;;;;;;;2.60;2.05;;;;;;;3.08;100.00;97800.50;5098276;28;20056;-59
2024/01/11 09:47:02;;;;;;;1.67;1.58;;;;;;;3.18;100.00;97850.66;5097902;28;20083;-56
2024/01/11 09:49:31;;;;;;;2.08;1.65;;;;;;;2.96;100.00;97881.78;5097850;28;20077;-60
2024/01/11 09:51:57;;;;;;;2.40;1.63;;;;;;;3.08;100.00;97944.00;5097814;28;20152;-57
2024/01/11 09:54:25;;;;;;;1.80;1.70;;;;;;;3.02;100.00;97981.38;5098064;28;20055;-59
2024/01/11 09:56:53;;;;;;;3.00;2.15;;;;;;;2.92;100.00;98016.25;5097759;28;20094;-56
2024/01/11 09:59:22;;;;;;;6.28;2.15;;;;;;;3.08;100.00;98035.31;5098091;28;20318;-54
2024/01/11 10:01:49;;;;;;;5.22;2.50;;;;;;;2.92;100.00;98033.28;5097622;28;20420;-58
2024/01/11 10:04:17;;;;;;;2.22;2.00;;;;;;;3.03;100.00;98047.94;5097841;28;20056;-59
2024/01/11 10:06:44;;;;;;;4.07;2.20;;;;;;;3.10;100.00;98003.22;5097607;28;20055;-54
2024/01/11 10:09:10;;;;;;;2.72;1.85;;;;;;;3.20;100.00;97989.19;5097557;28;20409;-53
2024/01/11 10:11:37;;;;;;;2.67;2.35;;;;;;;3.34;100.00;97962.53;5097555;28;20047;-58
2024/01/11 10:14:05;;;;;;;7.22;2.15;;;;;;;3.48;100.00;97888.97;5097520;28;20062;-54
2024/01/11 10:16:31;;;;;;;3.47;2.03;;;;;;;3.53;100.00;97859.69;5097759;28;20048;-56
2024/01/11 10:18:58;;;;;;;1.80;1.50;;;;;;;3.54;100.00;97808.97;5097337;28;20078;-56
2024/01/11 10:21:24;;;;;;;1.83;1.73;;;;;;;3.36;100.00;97800.41;5097694;28;20048;-57
2024/01/11 10:23:51;;;;;;;2.67;2.00;;;;;;;3.43;100.00;97784.34;5097283;28;20051;-57
2024/01/11 10:26:19;;;;;;;2.10;1.90;;;;;;;3.42;100.00;97790.09;5097873;28;20048;-59
2024/01/11 10:28:46;;;;;;;3.67;2.10;;;;;;;3.34;100.00;97780.25;5097523;28;20130;-58
2024/01/11 10:31:14;;;;;;;3.30;2.65;;;;;;;3.31;100.00;97760.06;5097848;28;20081;-59
2024/01/11 10:33:41;;;;;;;2.55;2.17;;;;;;;3.35;100.00;97762.84;5097243;28;20055;-55
2024/01/11 10:36:08;;;;;;;2.03;1.83;;;;;;;3.43;100.00;97719.31;5097083;28;20440;-53
2024/01/11 10:38:36;;;;;;;3.63;1.98;;;;;;;3.50;100.00;97650.97;5097386;28;20055;-53
2024/01/11 10:41:05;;;;;;;3.10;1.73;;;;;;;3.49;100.00;97622.28;5097100;28;20048;-60
2024/01/11 10:43:33;;;;;;;1.50;1.40;;;;;;;3.57;100.00;97558.22;5097529;28;20114;-58
2024/01/11 10:46:03;;;;;;;4.82;1.90;;;;;;;3.49;100.00;97487.59;5097112;28;20062;-53
2024/01/11 10:48:32;;;;;;;2.25;1.85;;;;;;;3.45;100.00;97431.78;5097414;28;20466;-58
2024/01/11 10:51:01;;;;;;;7.75;3.17;;;;;;;3.54;100.00;97348.34;5097060;28;20044;-58
2024/01/11 10:53:37;;;;;;;2.20;1.77;;;;;;;3.60;100.00;97311.69;5097403;28;20063;-55
2024/01/11 10:56:07;;;;;;;1.60;1.33;;;;;;;3.66;100.00;97253.31;5097079;28;20048;-59
2024/01/11 10:58:35;;;;;;;3.20;1.40;;;;;;;3.56;100.00;97234.19;5096900;28;20063;-58
2024/01/11 11:01:04;;;;;;;4.38;1.50;;;;;;;3.45;100.00;97264.63;5096639;28;20058;-61
2024/01/11 11:03:31;;;;;;;1.77;1.50;;;;;;;3.50;100.00;97304.19;5096927;28;20063;-58
2024/01/11 11:05:59;;;;;;;4.50;1.50;;;;;;;3.49;100.00;97319.63;5096818;28;20056;-59
2024/01/11 11:08:26;;;;;;;2.90;1.38;;;;;;;3.25;100.00;97350.59;5096743;28;20408;-60
2024/01/11 11:10:56;;;;;;;2.38;1.20;;;;;;;3.30;100.00;97419.94;5096769;28;20441;-60
2024/01/11 11:13:24;;;;;;;3.75;2.33;;;;;;;3.24;100.00;97470.09;5096576;28;20138;-61
2024/01/11 11:15:51;;;;;;;6.20;1.75;;;;;;;3.14;100.00;97485.00;5097097;28;20406;-56
2024/01/11 11:18:18;;;;;;;1.30;1.20;;;;;;;3.03;100.00;97500.22;5095715;28;20074;-55
2024/01/11 11:20:45;;;;;;;2.60;1.65;;;;;;;2.93;100.00;97508.91;5096992;28;20051;-53
2024/01/11 11:23:17;;;;;;;1.40;1.30;;;;;;;2.92;100.00;97556.84;5096759;28;20325;-58
2024/01/11 11:25:45;;;;;;;2.70;1.35;;;;;;;2.69;100.00;97623.59;5096321;28;20059;-58
2024/01/11 11:28:13;;;;;;;1.50;1.30;;;;;;;2.59;100.00;97733.91;5096598;28;20048;-55
2024/01/11 11:30:41;;;;;;;3.47;1.38;;;;;;;2.48;100.00;97794.28;5096346;28;20097;-58
2024/01/11 11:33:15;;;;;;;8.77;2.95;;;;;;;2.73;100.00;97855.28;5096522;28;20139;-53